CLO weather

Alfonso Bonilla Aragon International Airport
Cali, Valle del Cauca Department, Colombia

Public forecast

Using degrees Celsius for public forecast. Weather courtesy of forecast.io.

METAR (pilot weather report)

Retrieved 2017/10/22 09:00 UTC (15 minutes ago):

SKCL 220900Z 04003KT 360V090 9999 -DZ SCT040 BKN080 21/21A2994

TAF (pilot weather forecast)

Forecast is more than 12 hours old.

Retrieved 2017/10/21 00:24 UTC (1 day ago):

TAF SKCL 212300Z 220024 VRB07KT 9999 VCSH SCT040CB SCT090 PROB30 TEMPO 2202/2205 8000 DZ TEMPO 2210/2213 7000 VCFG TEMPO 2219/2223 36010KT VCSH SCT017TCU TX32/2219Z TN19/2211Z